Time;durP1;ratioP1;P1;durP2;ratioP2;P2;SDS_P1;SDS_P2;PMS_P1;PMS_P2;Temp;Humidity;BMP_temperature;BMP_pressure;BME280_temperature;BME280_humidity;BME280_pressure;Samples;Min_cycle;Max_cycle;Signal;HPM_P1;HPM_P2
2022/07/06 00:00:00;;;;;;;4.90;0.82;;;;;;;;;;5002078;28;20109;-62
2022/07/06 00:02:28;;;;;;;8.20;1.00;;;;;;;;;;5004331;28;20058;-62
2022/07/06 00:04:55;;;;;;;8.02;1.25;;;;;;;;;;5001478;28;20064;-63
2022/07/06 00:07:23;;;;;;;6.88;1.02;;;;;;;;;;4996879;28;20132;-62
2022/07/06 00:09:51;;;;;;;7.05;0.90;;;;;;;;;;4993595;28;20053;-63
2022/07/06 00:12:18;;;;;;;4.88;0.90;;;;;;;;;;5004720;28;20053;-63
2022/07/06 00:14:45;;;;;;;5.18;0.80;;;;;;;;;;5000761;28;20115;-62
2022/07/06 00:17:13;;;;;;;7.43;0.90;;;;;;;;;;5003364;28;20420;-62
2022/07/06 00:19:40;;;;;;;6.25;1.30;;;;;;;;;;5000361;28;20055;-62
2022/07/06 00:22:07;;;;;;;5.80;0.90;;;;;;;;;;4998861;28;20053;-63
2022/07/06 00:24:36;;;;;;;8.02;1.08;;;;;;;;;;4992818;28;20092;-62
2022/07/06 00:27:03;;;;;;;8.70;1.20;;;;;;;;;;4999790;28;20058;-63
2022/07/06 00:29:30;;;;;;;3.78;1.15;;;;;;;;;;4986939;28;20770;-62
2022/07/06 00:31:57;;;;;;;6.47;1.00;;;;;;;;;;4995646;28;20046;-63
2022/07/06 00:34:24;;;;;;;5.95;0.80;;;;;;;;;;4996164;28;20112;-62
2022/07/06 00:36:52;;;;;;;6.20;0.95;;;;;;;;;;4988519;28;20453;-62
2022/07/06 00:39:21;;;;;;;7.47;2.15;;;;;;;;;;5000411;28;20115;-63
2022/07/06 00:41:50;;;;;;;5.88;1.20;;;;;;;;;;5003938;28;20041;-63
2022/07/06 00:44:17;;;;;;;5.05;1.00;;;;;;;;;;5001603;28;20065;-62
2022/07/06 00:46:44;;;;;;;3.72;0.80;;;;;;;;;;4996309;28;21323;-61
2022/07/06 00:50:13;;;;;;;5.43;1.02;;;;;;;;;;4993256;28;20045;-63
2022/07/06 00:51:59;;;;;;;7.10;1.30;;;;;;;;;;4996035;28;20112;-62
2022/07/06 00:54:26;;;;;;;4.00;0.60;;;;;;;;;;5016774;28;20209;-63
2022/07/06 00:56:55;;;;;;;5.03;0.80;;;;;;;;;;5016768;28;20050;-63
2022/07/06 00:59:22;;;;;;;3.80;1.00;;;;;;;;;;5016476;28;20053;-62
2022/07/06 01:01:49;;;;;;;4.80;0.90;;;;;;;;;;5020311;28;20049;-62
2022/07/06 01:04:17;;;;;;;8.77;1.10;;;;;;;;;;5010819;28;20921;-63
2022/07/06 01:06:45;;;;;;;5.25;1.00;;;;;;;;;;5013927;28;20045;-62
2022/07/06 01:09:13;;;;;;;7.35;1.00;;;;;;;;;;5012015;28;20038;-62
2022/07/06 01:11:40;;;;;;;9.30;1.40;;;;;;;;;;5022082;28;20053;-62
2022/07/06 01:14:09;;;;;;;6.85;1.00;;;;;;;;;;5017492;28;20439;-63
2022/07/06 01:16:37;;;;;;;6.70;1.00;;;;;;;;;;5018532;28;20121;-63
2022/07/06 01:19:04;;;;;;;7.03;1.15;;;;;;;;;;5021133;28;20080;-63
2022/07/06 01:21:32;;;;;;;8.98;1.15;;;;;;;;;;5014635;28;20062;-63
2022/07/06 01:23:59;;;;;;;5.93;1.10;;;;;;;;;;5005037;28;20054;-63
2022/07/06 01:26:27;;;;;;;7.05;1.10;;;;;;;;;;5015816;28;20049;-63
2022/07/06 01:28:54;;;;;;;4.60;0.98;;;;;;;;;;5022619;28;20084;-64
2022/07/06 01:31:22;;;;;;;9.13;1.00;;;;;;;;;;5019810;28;20412;-62
2022/07/06 01:33:50;;;;;;;7.13;1.13;;;;;;;;;;5014611;28;20049;-62
2022/07/06 01:36:17;;;;;;;7.40;1.13;;;;;;;;;;5003139;28;20057;-61
2022/07/06 01:38:47;;;;;;;5.32;0.85;;;;;;;;;;5020467;28;20258;-63
2022/07/06 01:41:14;;;;;;;8.00;0.80;;;;;;;;;;5019810;28;20049;-62
2022/07/06 01:43:41;;;;;;;7.28;1.02;;;;;;;;;;5000075;28;20058;-63
2022/07/06 01:46:09;;;;;;;5.65;0.80;;;;;;;;;;5017716;28;20119;-63
2022/07/06 01:48:36;;;;;;;5.43;0.70;;;;;;;;;;5019853;28;20098;-63
2022/07/06 01:51:04;;;;;;;8.68;0.95;;;;;;;;;;5019660;28;20096;-63
2022/07/06 01:53:31;;;;;;;5.57;1.25;;;;;;;;;;5018980;28;20065;-62
2022/07/06 01:56:00;;;;;;;4.05;0.82;;;;;;;;;;5019676;28;20061;-62
2022/07/06 01:58:27;;;;;;;7.50;0.90;;;;;;;;;;5021496;28;20057;-63
2022/07/06 02:00:54;;;;;;;5.82;0.90;;;;;;;;;;5021632;28;20107;-63
2022/07/06 02:03:21;;;;;;;5.60;1.08;;;;;;;;;;5019363;28;20053;-61
2022/07/06 02:05:49;;;;;;;2.65;0.70;;;;;;;;;;5021288;28;20052;-62
2022/07/06 02:08:16;;;;;;;4.55;0.82;;;;;;;;;;4997675;28;20052;-62
2022/07/06 02:10:43;;;;;;;7.93;0.95;;;;;;;;;;5004239;28;20049;-62
2022/07/06 02:13:12;;;;;;;4.65;0.80;;;;;;;;;;5003077;28;20407;-63
2022/07/06 02:15:39;;;;;;;3.83;0.93;;;;;;;;;;5007733;28;20053;-62
2022/07/06 02:18:07;;;;;;;4.18;0.70;;;;;;;;;;5016317;28;20111;-63
2022/07/06 02:20:34;;;;;;;5.43;0.80;;;;;;;;;;5018256;28;20491;-63
2022/07/06 02:23:01;;;;;;;5.10;0.75;;;;;;;;;;5019552;28;20057;-62
2022/07/06 02:25:28;;;;;;;3.85;0.70;;;;;;;;;;5001339;28;20049;-63
2022/07/06 02:27:55;;;;;;;6.00;1.13;;;;;;;;;;4994351;28;20068;-63
2022/07/06 02:30:24;;;;;;;6.05;1.20;;;;;;;;;;5019860;28;20049;-62
2022/07/06 02:32:51;;;;;;;11.50;1.38;;;;;;;;;;4999226;28;20053;-62
2022/07/06 02:35:18;;;;;;;5.63;1.00;;;;;;;;;;5026900;28;20076;-63
2022/07/06 02:37:46;;;;;;;9.18;1.20;;;;;;;;;;5026439;28;20511;-63
2022/07/06 02:40:13;;;;;;;5.07;1.05;;;;;;;;;;5018550;28;20045;-62
2022/07/06 02:42:40;;;;;;;9.45;1.55;;;;;;;;;;5004963;28;20119;-61
2022/07/06 02:45:08;;;;;;;4.72;1.13;;;;;;;;;;5017377;28;20053;-63
2022/07/06 02:47:37;;;;;;;5.40;0.70;;;;;;;;;;5020109;28;20048;-63
2022/07/06 02:50:05;;;;;;;7.70;0.82;;;;;;;;;;5020351;28;20045;-63
2022/07/06 02:52:32;;;;;;;8.40;1.17;;;;;;;;;;5015522;28;20061;-62
2022/07/06 02:54:59;;;;;;;7.68;1.40;;;;;;;;;;5011864;28;20072;-63
2022/07/06 02:57:26;;;;;;;5.90;0.80;;;;;;;;;;5017254;28;20057;-63
2022/07/06 02:59:54;;;;;;;6.80;1.13;;;;;;;;;;5020195;28;20495;-61
2022/07/06 03:02:21;;;;;;;7.88;1.20;;;;;;;;;;5020524;28;20394;-62
2022/07/06 03:04:49;;;;;;;5.13;1.10;;;;;;;;;;5014876;28;20064;-63
2022/07/06 03:07:17;;;;;;;6.00;0.80;;;;;;;;;;5018954;28;20140;-62
2022/07/06 03:09:44;;;;;;;6.00;0.70;;;;;;;;;;5014699;28;20728;-63
2022/07/06 03:12:11;;;;;;;10.60;1.13;;;;;;;;;;5020333;28;20050;-62
2022/07/06 03:14:38;;;;;;;3.63;0.80;;;;;;;;;;5010566;28;20049;-62
2022/07/06 03:17:06;;;;;;;9.35;1.08;;;;;;;;;;5020674;28;20149;-62
2022/07/06 03:19:33;;;;;;;6.57;0.90;;;;;;;;;;5020033;28;20057;-62
2022/07/06 03:22:01;;;;;;;10.40;1.17;;;;;;;;;;5010944;28;20057;-62
2022/07/06 03:24:29;;;;;;;7.03;0.98;;;;;;;;;;5003098;28;20049;-62
2022/07/06 03:26:56;;;;;;;5.07;1.00;;;;;;;;;;5020716;28;20061;-61
2022/07/06 03:29:23;;;;;;;3.75;0.82;;;;;;;;;;5021831;28;20416;-63
2022/07/06 03:31:50;;;;;;;3.83;0.52;;;;;;;;;;5018021;28;20128;-62
2022/07/06 03:34:17;;;;;;;4.72;1.23;;;;;;;;;;5022845;28;20053;-61
2022/07/06 03:36:45;;;;;;;9.38;1.48;;;;;;;;;;5016824;28;20052;-63
2022/07/06 03:39:13;;;;;;;6.75;0.80;;;;;;;;;;5021235;28;20107;-62
2022/07/06 03:41:40;;;;;;;8.57;1.05;;;;;;;;;;5007896;28;20448;-61
2022/07/06 03:44:07;;;;;;;10.40;1.30;;;;;;;;;;5017392;28;20108;-61
2022/07/06 03:46:35;;;;;;;6.47;0.88;;;;;;;;;;5014550;28;20050;-62
2022/07/06 03:49:02;;;;;;;4.63;0.90;;;;;;;;;;5022554;28;20515;-62
2022/07/06 03:51:29;;;;;;;6.78;0.82;;;;;;;;;;5019019;28;20054;-62
2022/07/06 03:53:56;;;;;;;6.18;1.20;;;;;;;;;;5001351;28;20143;-62
2022/07/06 03:56:28;;;;;;;3.13;0.70;;;;;;;;;;5019317;28;20057;-61
2022/07/06 03:58:56;;;;;;;4.60;0.90;;;;;;;;;;5004759;28;20542;-63
2022/07/06 04:01:23;;;;;;;5.43;1.08;;;;;;;;;;5022727;28;20061;-62
2022/07/06 04:03:50;;;;;;;4.95;0.90;;;;;;;;;;5006248;28;20104;-62
2022/07/06 04:06:17;;;;;;;6.18;0.80;;;;;;;;;;5020830;28;20045;-62
2022/07/06 04:08:45;;;;;;;3.67;0.70;;;;;;;;;;5018872;28;20050;-63
2022/07/06 04:11:12;;;;;;;3.80;0.68;;;;;;;;;;5014528;28;20045;-61
2022/07/06 04:13:40;;;;;;;4.82;1.17;;;;;;;;;;5023795;28;20730;-61
2022/07/06 04:16:08;;;;;;;3.78;0.70;;;;;;;;;;5022968;28;20052;-62
2022/07/06 04:18:35;;;;;;;4.38;0.68;;;;;;;;;;5021127;28;20057;-62
2022/07/06 04:21:03;;;;;;;5.00;0.93;;;;;;;;;;5014404;28;20061;-63
2022/07/06 04:23:30;;;;;;;3.55;0.90;;;;;;;;;;5023380;28;20087;-62
2022/07/06 04:25:57;;;;;;;5.85;0.73;;;;;;;;;;5021203;28;20106;-62
2022/07/06 04:28:25;;;;;;;5.22;0.70;;;;;;;;;;5019355;28;20053;-62
2022/07/06 04:30:53;;;;;;;5.88;0.77;;;;;;;;;;5013663;28;20050;-63
2022/07/06 04:33:20;;;;;;;7.43;1.02;;;;;;;;;;5021831;28;20103;-61
2022/07/06 04:35:48;;;;;;;3.58;0.55;;;;;;;;;;5022054;28;20049;-62
2022/07/06 04:38:15;;;;;;;3.53;0.70;;;;;;;;;;5017855;28;20056;-62
2022/07/06 04:40:42;;;;;;;5.80;1.20;;;;;;;;;;5018446;28;20041;-62
2022/07/06 04:43:09;;;;;;;6.38;1.10;;;;;;;;;;5017189;28;20564;-62
2022/07/06 04:45:37;;;;;;;7.50;1.30;;;;;;;;;;5016995;28;20095;-63
2022/07/06 04:48:08;;;;;;;3.00;0.68;;;;;;;;;;5004268;28;20054;-61
2022/07/06 04:50:35;;;;;;;4.53;0.82;;;;;;;;;;5020158;28;20050;-61
2022/07/06 04:53:02;;;;;;;7.40;0.95;;;;;;;;;;5009895;28;20073;-62
2022/07/06 04:55:29;;;;;;;9.40;0.98;;;;;;;;;;5018786;28;20131;-62
2022/07/06 04:57:56;;;;;;;4.07;0.75;;;;;;;;;;5017009;28;20057;-63
2022/07/06 05:00:24;;;;;;;6.57;0.82;;;;;;;;;;5021251;28;20164;-61
2022/07/06 05:02:51;;;;;;;7.45;1.10;;;;;;;;;;5013372;28;20045;-63
2022/07/06 05:05:20;;;;;;;7.00;1.02;;;;;;;;;;5014996;28;20065;-63
2022/07/06 05:07:47;;;;;;;5.30;0.82;;;;;;;;;;5020684;28;20613;-63
2022/07/06 05:10:14;;;;;;;5.65;0.93;;;;;;;;;;5016129;28;20120;-62
2022/07/06 05:12:41;;;;;;;4.88;0.88;;;;;;;;;;5019094;28;20051;-63
2022/07/06 05:15:09;;;;;;;2.83;0.75;;;;;;;;;;5019472;28;20091;-63
2022/07/06 05:17:37;;;;;;;5.28;0.70;;;;;;;;;;5017781;28;20401;-63
2022/07/06 05:20:05;;;;;;;4.07;0.65;;;;;;;;;;5019796;28;20042;-62
2022/07/06 05:22:33;;;;;;;5.07;0.82;;;;;;;;;;5017697;28;20695;-61
2022/07/06 05:25:00;;;;;;;5.30;1.08;;;;;;;;;;5017768;28;20554;-63
2022/07/06 05:27:27;;;;;;;3.58;0.63;;;;;;;;;;5032256;28;20539;-62
2022/07/06 05:29:55;;;;;;;5.38;0.82;;;;;;;;;;5010694;28;20053;-62
2022/07/06 05:32:22;;;;;;;3.90;1.05;;;;;;;;;;5011983;28;20053;-62
2022/07/06 05:34:51;;;;;;;3.72;0.77;;;;;;;;;;5011466;28;20046;-62
2022/07/06 05:37:18;;;;;;;7.45;0.98;;;;;;;;;;5013930;28;20136;-63
2022/07/06 05:39:49;;;;;;;6.72;0.98;;;;;;;;;;5016506;28;20061;-63
2022/07/06 05:42:16;;;;;;;8.98;1.20;;;;;;;;;;5016361;28;20413;-62
2022/07/06 05:44:43;;;;;;;6.85;0.90;;;;;;;;;;5016317;28;20061;-63
2022/07/06 05:50:14;;;;;;;5.40;0.73;;;;;;;;;;5013356;28;20037;-62
2022/07/06 05:52:42;;;;;;;6.72;1.00;;;;;;;;;;5020292;28;20520;-62
2022/07/06 05:55:10;;;;;;;5.43;0.85;;;;;;;;;;5014800;28;20461;-62
2022/07/06 05:57:38;;;;;;;5.72;0.73;;;;;;;;;;5021533;28;20111;-62
2022/07/06 06:00:06;;;;;;;4.18;0.70;;;;;;;;;;5021717;28;20072;-62
2022/07/06 06:02:40;;;;;;;4.95;0.70;;;;;;;;;;5021662;28;20045;-62
2022/07/06 06:05:08;;;;;;;5.03;0.80;;;;;;;;;;5006484;28;20092;-63
2022/07/06 06:07:35;;;;;;;5.28;0.82;;;;;;;;;;5021598;28;20053;-63
2022/07/06 06:10:03;;;;;;;5.25;0.88;;;;;;;;;;5012620;28;20521;-61
2022/07/06 06:12:32;;;;;;;5.80;1.02;;;;;;;;;;5015397;28;20080;-62
2022/07/06 06:14:59;;;;;;;4.55;0.82;;;;;;;;;;5013249;28;20064;-61
2022/07/06 06:17:26;;;;;;;6.95;0.80;;;;;;;;;;5020799;28;20049;-62
2022/07/06 06:19:53;;;;;;;4.40;0.70;;;;;;;;;;5018128;28;20053;-62
2022/07/06 06:22:21;;;;;;;5.38;0.82;;;;;;;;;;5016958;28;20056;-62
2022/07/06 06:24:48;;;;;;;6.05;0.85;;;;;;;;;;5019962;28;20053;-62
2022/07/06 06:27:15;;;;;;;5.63;0.75;;;;;;;;;;5002767;28;20060;-62
2022/07/06 06:29:44;;;;;;;6.80;0.90;;;;;;;;;;5003492;28;20495;-63
2022/07/06 06:32:11;;;;;;;5.10;0.60;;;;;;;;;;5016866;28;20111;-62
2022/07/06 06:34:39;;;;;;;5.75;0.90;;;;;;;;;;5022566;28;20054;-62
2022/07/06 06:37:06;;;;;;;3.28;0.90;;;;;;;;;;5017642;28;20045;-62
2022/07/06 06:39:33;;;;;;;3.95;0.60;;;;;;;;;;5014708;28;20123;-63
2022/07/06 06:42:01;;;;;;;6.70;0.70;;;;;;;;;;5014249;28;20399;-63
2022/07/06 06:44:28;;;;;;;4.30;0.60;;;;;;;;;;5017978;28;20719;-61
2022/07/06 06:46:56;;;;;;;8.95;0.90;;;;;;;;;;5018687;28;20479;-63
2022/07/06 06:49:24;;;;;;;4.57;0.63;;;;;;;;;;5020800;28;20479;-62
2022/07/06 06:51:51;;;;;;;5.45;1.10;;;;;;;;;;5017402;28;20044;-62
2022/07/06 06:54:18;;;;;;;4.47;0.70;;;;;;;;;;4996306;28;20050;-61
2022/07/06 06:56:46;;;;;;;5.93;0.80;;;;;;;;;;4999027;28;20054;-63
2022/07/06 06:59:13;;;;;;;4.60;0.85;;;;;;;;;;4998492;28;20409;-62
2022/07/06 07:01:40;;;;;;;5.03;0.82;;;;;;;;;;4999863;28;20056;-63
2022/07/06 07:04:08;;;;;;;4.80;0.70;;;;;;;;;;5002146;28;20053;-62
2022/07/06 07:06:36;;;;;;;4.07;0.60;;;;;;;;;;5004263;28;20057;-62
2022/07/06 07:09:04;;;;;;;5.20;0.60;;;;;;;;;;5001874;28;20054;-62
2022/07/06 07:11:32;;;;;;;4.53;0.70;;;;;;;;;;5004789;28;20058;-62
2022/07/06 07:14:00;;;;;;;3.83;0.60;;;;;;;;;;5003115;28;20057;-61
2022/07/06 07:16:27;;;;;;;4.75;0.80;;;;;;;;;;5002996;28;20046;-63
2022/07/06 07:18:54;;;;;;;3.25;0.75;;;;;;;;;;5003335;28;20100;-63
2022/07/06 07:21:23;;;;;;;5.05;0.90;;;;;;;;;;5003099;28;20078;-62
2022/07/06 07:23:51;;;;;;;3.08;0.57;;;;;;;;;;5002481;28;20061;-62
2022/07/06 07:26:18;;;;;;;4.38;0.60;;;;;;;;;;5001264;28;20463;-63
2022/07/06 07:28:46;;;;;;;6.18;0.75;;;;;;;;;;4989056;28;20065;-63
2022/07/06 07:31:13;;;;;;;4.72;0.68;;;;;;;;;;4989932;28;20484;-63
2022/07/06 07:33:41;;;;;;;3.70;0.60;;;;;;;;;;5002602;28;20049;-63
2022/07/06 07:36:08;;;;;;;4.75;0.70;;;;;;;;;;5003349;28;20082;-62
2022/07/06 07:38:37;;;;;;;4.63;0.73;;;;;;;;;;5002364;28;20532;-63
2022/07/06 07:41:05;;;;;;;4.45;0.77;;;;;;;;;;4988341;28;20146;-62
2022/07/06 07:43:33;;;;;;;3.83;0.68;;;;;;;;;;4999496;28;20733;-63
2022/07/06 07:46:00;;;;;;;5.05;0.80;;;;;;;;;;5000338;28;20050;-63
2022/07/06 07:48:27;;;;;;;4.30;0.90;;;;;;;;;;5001753;28;20049;-63
2022/07/06 07:50:55;;;;;;;3.35;0.80;;;;;;;;;;4999685;28;20038;-62
2022/07/06 07:53:22;;;;;;;7.05;0.90;;;;;;;;;;5014774;28;20686;-62
2022/07/06 07:55:50;;;;;;;2.85;0.70;;;;;;;;;;5025876;28;20553;-62
2022/07/06 07:58:18;;;;;;;4.13;0.55;;;;;;;;;;5005809;28;20061;-63
2022/07/06 08:00:45;;;;;;;2.05;0.50;;;;;;;;;;5028379;28;20046;-64
2022/07/06 08:03:13;;;;;;;5.75;1.00;;;;;;;;;;5028145;28;20045;-63
2022/07/06 08:05:40;;;;;;;6.20;0.70;;;;;;;;;;5020659;28;20110;-63
2022/07/06 08:08:07;;;;;;;4.55;0.60;;;;;;;;;;5022087;28;20103;-63
2022/07/06 08:10:34;;;;;;;3.28;0.70;;;;;;;;;;5022548;28;20050;-63
2022/07/06 08:13:03;;;;;;;2.75;0.77;;;;;;;;;;5005196;28;20060;-63
2022/07/06 08:15:31;;;;;;;4.35;0.73;;;;;;;;;;5020642;28;20639;-64
2022/07/06 08:17:58;;;;;;;4.03;0.80;;;;;;;;;;5024880;28;20584;-63
2022/07/06 08:20:25;;;;;;;7.53;1.10;;;;;;;;;;5020271;28;20056;-63
2022/07/06 08:22:53;;;;;;;4.40;0.80;;;;;;;;;;5007261;28;20076;-62
2022/07/06 08:25:20;;;;;;;5.78;0.90;;;;;;;;;;5023271;28;20052;-62
2022/07/06 08:27:48;;;;;;;4.45;0.70;;;;;;;;;;5020163;28;20495;-62
2022/07/06 08:30:16;;;;;;;3.63;0.73;;;;;;;;;;5020052;28;20064;-63
2022/07/06 08:32:44;;;;;;;7.63;1.15;;;;;;;;;;5021843;28;20061;-63
2022/07/06 08:35:11;;;;;;;6.00;0.90;;;;;;;;;;5028962;28;20057;-63
2022/07/06 08:37:39;;;;;;;5.03;1.02;;;;;;;;;;5027781;28;20059;-63
2022/07/06 08:40:07;;;;;;;3.83;0.80;;;;;;;;;;5027886;28;20054;-62
2022/07/06 08:42:35;;;;;;;4.60;0.60;;;;;;;;;;5030690;28;20049;-63
2022/07/06 08:45:04;;;;;;;4.25;0.70;;;;;;;;;;5001346;28;20049;-63
2022/07/06 08:47:33;;;;;;;4.32;1.05;;;;;;;;;;5021725;28;20176;-62
2022/07/06 08:50:01;;;;;;;5.22;0.70;;;;;;;;;;5024737;28;20657;-63
2022/07/06 08:52:28;;;;;;;2.60;0.60;;;;;;;;;;5029390;28;20172;-63
2022/07/06 08:54:55;;;;;;;2.45;0.80;;;;;;;;;;5021434;28;20053;-62
2022/07/06 08:57:22;;;;;;;3.50;0.75;;;;;;;;;;5005267;28;20042;-62
2022/07/06 08:59:50;;;;;;;4.05;0.73;;;;;;;;;;5025535;28;20042;-62
2022/07/06 09:02:17;;;;;;;2.30;0.70;;;;;;;;;;5022754;28;20503;-62
2022/07/06 09:04:46;;;;;;;2.30;0.80;;;;;;;;;;5022681;28;20056;-63
2022/07/06 09:07:14;;;;;;;4.13;1.13;;;;;;;;;;5027232;28;20057;-62
2022/07/06 09:09:41;;;;;;;4.75;0.70;;;;;;;;;;5028311;28;20124;-63
2022/07/06 09:12:13;;;;;;;6.53;1.00;;;;;;;;;;5018142;28;20049;-63
2022/07/06 09:14:41;;;;;;;3.43;0.77;;;;;;;;;;5026342;28;20526;-64
2022/07/06 09:17:08;;;;;;;5.13;0.63;;;;;;;;;;5023347;28;20867;-62
2022/07/06 09:19:36;;;;;;;4.88;0.90;;;;;;;;;;5027475;28;20045;-63
2022/07/06 09:22:05;;;;;;;5.88;0.80;;;;;;;;;;5023165;28;20883;-63
2022/07/06 09:24:33;;;;;;;5.00;0.60;;;;;;;;;;5028305;28;20475;-64
2022/07/06 09:27:00;;;;;;;10.68;0.95;;;;;;;;;;5021379;28;20056;-63
2022/07/06 09:29:29;;;;;;;4.75;0.60;;;;;;;;;;5019633;28;20045;-63
2022/07/06 09:32:00;;;;;;;3.30;0.80;;;;;;;;;;5019779;28;20045;-63
2022/07/06 09:34:41;;;;;;;6.80;0.70;;;;;;;;;;5028237;28;20046;-63
2022/07/06 09:37:10;;;;;;;3.13;0.60;;;;;;;;;;5023823;28;20049;-62
2022/07/06 09:39:37;;;;;;;4.43;0.75;;;;;;;;;;5020979;28;20057;-63
2022/07/06 09:42:06;;;;;;;2.53;0.70;;;;;;;;;;4999444;28;20060;-63
2022/07/06 09:44:36;;;;;;;3.17;0.60;;;;;;;;;;5018037;28;20054;-62
2022/07/06 09:47:05;;;;;;;2.97;0.90;;;;;;;;;;5025671;28;20639;-63
2022/07/06 09:49:32;;;;;;;3.58;0.70;;;;;;;;;;5013538;28;20057;-63
2022/07/06 09:52:00;;;;;;;2.63;0.70;;;;;;;;;;5019677;28;20115;-63
2022/07/06 09:54:28;;;;;;;1.40;0.68;;;;;;;;;;5021501;28;20045;-61
2022/07/06 09:56:56;;;;;;;2.95;0.85;;;;;;;;;;5021767;28;20053;-62
2022/07/06 09:59:24;;;;;;;4.95;0.57;;;;;;;;;;5018498;28;20057;-63
2022/07/06 10:01:52;;;;;;;7.80;0.75;;;;;;;;;;5001487;28;20041;-63
2022/07/06 10:04:20;;;;;;;2.95;0.70;;;;;;;;;;5014953;28;20142;-63
2022/07/06 10:06:47;;;;;;;3.30;0.93;;;;;;;;;;5022133;28;20053;-63
2022/07/06 10:09:15;;;;;;;1.98;0.60;;;;;;;;;;5020182;28;20053;-64
2022/07/06 10:11:46;;;;;;;3.88;1.00;;;;;;;;;;5013921;28;20107;-62
2022/07/06 10:14:16;;;;;;;3.50;0.65;;;;;;;;;;5021558;28;20062;-63
2022/07/06 10:16:44;;;;;;;3.25;0.50;;;;;;;;;;5021200;28;20057;-62
2022/07/06 10:19:11;;;;;;;3.22;0.60;;;;;;;;;;4999295;28;20053;-63
2022/07/06 10:21:39;;;;;;;4.97;0.75;;;;;;;;;;5003960;28;20049;-63
2022/07/06 10:24:07;;;;;;;1.40;0.40;;;;;;;;;;5019075;28;20115;-62
2022/07/06 10:26:34;;;;;;;3.97;0.75;;;;;;;;;;5019622;28;20058;-62
2022/07/06 10:29:03;;;;;;;2.33;0.50;;;;;;;;;;5020633;28;20049;-63
2022/07/06 10:31:32;;;;;;;3.20;0.73;;;;;;;;;;5021378;28;20484;-63
2022/07/06 10:34:00;;;;;;;2.72;0.63;;;;;;;;;;5022970;28;20123;-64
2022/07/06 10:36:28;;;;;;;2.05;0.50;;;;;;;;;;5021006;28;20057;-63
2022/07/06 10:38:56;;;;;;;2.25;0.60;;;;;;;;;;4998059;28;20059;-64
2022/07/06 10:41:31;;;;;;;3.90;0.77;;;;;;;;;;5015054;28;20050;-63
2022/07/06 10:44:00;;;;;;;4.10;0.80;;;;;;;;;;5020232;28;20051;-63
2022/07/06 10:46:30;;;;;;;3.08;0.70;;;;;;;;;;5017151;28;20051;-63
2022/07/06 10:48:58;;;;;;;4.15;0.80;;;;;;;;;;5014064;28;20725;-63
2022/07/06 10:51:26;;;;;;;2.30;0.73;;;;;;;;;;5022496;28;20141;-62
2022/07/06 10:53:57;;;;;;;4.65;0.80;;;;;;;;;;5014046;28;20074;-62
2022/07/06 10:56:33;;;;;;;2.35;0.60;;;;;;;;;;5019772;28;20492;-63
2022/07/06 10:59:03;;;;;;;3.63;0.45;;;;;;;;;;5017764;28;20080;-64
2022/07/06 11:01:32;;;;;;;5.03;0.70;;;;;;;;;;5018830;28;20061;-64
2022/07/06 11:04:06;;;;;;;3.42;0.80;;;;;;;;;;5016368;28;20053;-64
2022/07/06 11:06:35;;;;;;;1.70;0.52;;;;;;;;;;5015633;28;20054;-63
2022/07/06 11:09:03;;;;;;;0.50;0.40;;;;;;;;;;5018349;28;20057;-64
2022/07/06 11:11:40;;;;;;;3.08;0.80;;;;;;;;;;5018576;28;20050;-64
2022/07/06 11:14:09;;;;;;;3.60;0.75;;;;;;;;;;5019392;28;20053;-64
2022/07/06 11:16:38;;;;;;;2.72;0.60;;;;;;;;;;5017741;28;20052;-64
2022/07/06 11:19:10;;;;;;;2.67;0.70;;;;;;;;;;5018164;28;20799;-64
2022/07/06 11:21:38;;;;;;;1.98;0.73;;;;;;;;;;5009687;28;20163;-64
2022/07/06 11:24:06;;;;;;;3.17;0.80;;;;;;;;;;5016729;28;20492;-63
2022/07/06 11:26:35;;;;;;;3.40;0.70;;;;;;;;;;5015585;28;20137;-64
2022/07/06 11:29:04;;;;;;;1.77;0.60;;;;;;;;;;5019581;28;20143;-62
2022/07/06 11:31:31;;;;;;;5.50;0.70;;;;;;;;;;5013922;28;20107;-64
2022/07/06 11:34:00;;;;;;;4.32;0.85;;;;;;;;;;5019120;28;20053;-63
2022/07/06 11:36:27;;;;;;;2.08;0.60;;;;;;;;;;5013763;28;20050;-63
2022/07/06 11:38:55;;;;;;;1.58;0.70;;;;;;;;;;5019970;28;20050;-63
2022/07/06 11:41:22;;;;;;;3.65;0.80;;;;;;;;;;5016059;28;20528;-64
2022/07/06 11:43:51;;;;;;;2.80;0.80;;;;;;;;;;5019065;28;20064;-64
2022/07/06 11:46:25;;;;;;;2.20;0.63;;;;;;;;;;5015845;28;20057;-63
2022/07/06 11:48:53;;;;;;;3.75;1.10;;;;;;;;;;5013830;28;20124;-64
2022/07/06 11:51:22;;;;;;;6.03;0.90;;;;;;;;;;5017077;28;20053;-64
2022/07/06 11:53:50;;;;;;;2.60;0.68;;;;;;;;;;5019979;28;20236;-64
2022/07/06 11:56:18;;;;;;;2.63;0.80;;;;;;;;;;5016838;28;20504;-63
2022/07/06 11:58:47;;;;;;;4.15;0.70;;;;;;;;;;5001718;28;20057;-64
2022/07/06 12:01:15;;;;;;;5.80;0.88;;;;;;;;;;5022640;28;20951;-64
2022/07/06 12:03:42;;;;;;;3.30;0.70;;;;;;;;;;5016709;28;20524;-63
2022/07/06 12:06:14;;;;;;;2.45;0.93;;;;;;;;;;5021484;28;20053;-64
2022/07/06 12:08:44;;;;;;;2.83;0.60;;;;;;;;;;5004150;28;20057;-63
2022/07/06 12:11:11;;;;;;;3.83;0.68;;;;;;;;;;5004674;28;20049;-63
2022/07/06 12:13:42;;;;;;;3.10;0.73;;;;;;;;;;5019707;28;20054;-64
2022/07/06 12:16:13;;;;;;;2.92;0.70;;;;;;;;;;5022096;28;20139;-63
2022/07/06 12:18:41;;;;;;;3.20;0.88;;;;;;;;;;5020791;28;20049;-63
2022/07/06 12:21:12;;;;;;;2.80;0.80;;;;;;;;;;5011858;28;20049;-63
2022/07/06 12:23:45;;;;;;;4.63;1.00;;;;;;;;;;5013033;28;20048;-64
2022/07/06 12:26:12;;;;;;;4.68;0.77;;;;;;;;;;5019014;28;20052;-64
2022/07/06 12:28:39;;;;;;;2.17;0.70;;;;;;;;;;5015821;28;20053;-63
2022/07/06 12:31:07;;;;;;;3.03;0.70;;;;;;;;;;5017447;28;20100;-64
2022/07/06 12:33:34;;;;;;;5.20;0.80;;;;;;;;;;5001938;28;20053;-63
2022/07/06 12:36:14;;;;;;;7.20;1.10;;;;;;;;;;5015667;28;20049;-64
2022/07/06 12:38:47;;;;;;;5.15;1.10;;;;;;;;;;5013779;28;20153;-64
2022/07/06 12:41:28;;;;;;;3.40;1.00;;;;;;;;;;5011428;28;20056;-64
2022/07/06 12:44:01;;;;;;;4.72;1.10;;;;;;;;;;5005409;28;20053;-64
2022/07/06 12:46:30;;;;;;;3.90;0.90;;;;;;;;;;5005358;28;20061;-63
2022/07/06 12:48:58;;;;;;;4.35;0.98;;;;;;;;;;5021713;28;20045;-63
2022/07/06 12:51:26;;;;;;;4.70;1.30;;;;;;;;;;5021718;28;20049;-63
2022/07/06 12:53:54;;;;;;;4.63;1.00;;;;;;;;;;5019520;28;20050;-62
2022/07/06 12:56:23;;;;;;;2.50;0.77;;;;;;;;;;5016146;28;20115;-63
2022/07/06 12:58:57;;;;;;;5.45;1.20;;;;;;;;;;5011840;28;20050;-63
2022/07/06 13:01:25;;;;;;;8.13;1.35;;;;;;;;;;5005429;28;20056;-63
2022/07/06 13:03:55;;;;;;;3.67;0.90;;;;;;;;;;5016352;28;20046;-63
2022/07/06 13:06:33;;;;;;;8.48;1.35;;;;;;;;;;5015364;28;20046;-63
2022/07/06 13:09:01;;;;;;;5.78;1.00;;;;;;;;;;5019273;28;20828;-64
2022/07/06 13:11:28;;;;;;;4.25;1.23;;;;;;;;;;5010317;28;20523;-63
2022/07/06 13:13:57;;;;;;;7.05;1.33;;;;;;;;;;5015213;28;20121;-65
2022/07/06 13:16:30;;;;;;;3.47;0.90;;;;;;;;;;5019174;28;20073;-65
2022/07/06 13:18:57;;;;;;;9.15;1.25;;;;;;;;;;4994171;28;20058;-65
2022/07/06 13:21:24;;;;;;;4.25;0.95;;;;;;;;;;5016062;28;20042;-63
2022/07/06 13:23:51;;;;;;;9.55;1.13;;;;;;;;;;5014153;28;20056;-64
2022/07/06 13:26:20;;;;;;;5.60;1.10;;;;;;;;;;5019971;28;20053;-64
2022/07/06 13:28:47;;;;;;;5.40;0.88;;;;;;;;;;5015701;28;20053;-63
2022/07/06 13:31:15;;;;;;;6.13;0.95;;;;;;;;;;5000961;28;20155;-65
2022/07/06 13:33:42;;;;;;;6.15;1.23;;;;;;;;;;5013083;28;20045;-63
2022/07/06 13:36:09;;;;;;;6.57;0.85;;;;;;;;;;5013066;28;20045;-63
2022/07/06 13:38:37;;;;;;;6.10;1.15;;;;;;;;;;5021181;28;20049;-64
2022/07/06 13:41:05;;;;;;;5.07;1.30;;;;;;;;;;5009060;28;20065;-65
2022/07/06 13:43:36;;;;;;;10.18;1.33;;;;;;;;;;5020611;28;20045;-64
2022/07/06 13:46:04;;;;;;;3.95;1.00;;;;;;;;;;5016530;28;20045;-64
2022/07/06 13:48:32;;;;;;;2.58;0.90;;;;;;;;;;5015570;28;20080;-65
2022/07/06 13:50:59;;;;;;;5.18;1.00;;;;;;;;;;5007404;28;20534;-63
2022/07/06 13:53:26;;;;;;;7.57;1.27;;;;;;;;;;5018583;28;20045;-64
2022/07/06 13:55:54;;;;;;;7.85;1.35;;;;;;;;;;5017379;28;20053;-63
2022/07/06 13:58:21;;;;;;;4.78;1.25;;;;;;;;;;5015313;28;20050;-64
2022/07/06 14:00:49;;;;;;;5.50;1.00;;;;;;;;;;5013474;28;20053;-65
2022/07/06 14:03:17;;;;;;;5.03;1.10;;;;;;;;;;5012725;28;20049;-65
2022/07/06 14:05:44;;;;;;;4.15;1.20;;;;;;;;;;5019485;28;20132;-64
2022/07/06 14:08:12;;;;;;;7.07;1.38;;;;;;;;;;5014192;28;20053;-65
2022/07/06 14:10:39;;;;;;;8.88;1.85;;;;;;;;;;5013881;28;20045;-64
2022/07/06 14:13:06;;;;;;;6.80;1.60;;;;;;;;;;5017875;28;20056;-63
2022/07/06 14:15:34;;;;;;;6.80;1.73;;;;;;;;;;5019201;28;20095;-63
2022/07/06 14:18:02;;;;;;;6.35;1.40;;;;;;;;;;5004108;28;20054;-64
2022/07/06 14:20:29;;;;;;;5.55;1.50;;;;;;;;;;5018156;28;20160;-64
2022/07/06 14:22:57;;;;;;;8.80;1.45;;;;;;;;;;5013058;28;20095;-65
2022/07/06 14:25:24;;;;;;;4.82;1.15;;;;;;;;;;5014538;28;20046;-63
2022/07/06 14:27:51;;;;;;;7.28;1.30;;;;;;;;;;5018459;28;20054;-63
2022/07/06 14:30:18;;;;;;;5.28;1.35;;;;;;;;;;5012504;28;20058;-62
2022/07/06 14:32:46;;;;;;;3.95;1.10;;;;;;;;;;4997452;28;20127;-65
2022/07/06 14:35:14;;;;;;;6.72;1.27;;;;;;;;;;5018687;28;20826;-65
2022/07/06 14:37:41;;;;;;;6.70;1.48;;;;;;;;;;5015555;28;20480;-63
2022/07/06 14:43:38;;;;;;;5.88;1.50;;;;;;;;;;5019102;28;20036;-64
2022/07/06 14:46:06;;;;;;;4.93;1.30;;;;;;;;;;5010773;28;20056;-64
2022/07/06 15:37:00;;;;;;;11.30;2.90;;;;;;;;;;4947604;28;20114;-63
2022/07/06 15:39:27;;;;;;;8.80;2.50;;;;;;;;;;4947632;28;20047;-62
2022/07/06 15:41:55;;;;;;;7.32;2.47;;;;;;;;;;4945503;28;20409;-63